Budapest Bridge — VRIZ5 — position and weather

sailwx.info

Track history (hours):
 
Tides and Currents Weather Stations Pressure Air Temp Water Temp Dewpoint Dewpoint Depression Visibility Wind Speed Wind Dir Waves Ship Positions

Budapest Bridge

Last reported at 2016-Dec-01 11:31 UTC. Time now 2016-Dec-09 02:02 UTC.
Position N 01°15' E 104°04'.

Length 268 m; draft 11.5 m.

Type: Cargo ship. MMSI: 477434200.

Date/timePositionNaut miles runAvg speedWind from/ knotsBaromVisibWave heightAir tempDewpointWater temp
2016-Dec-01 11:31N 01°15' E 104°04'1515.6
2016-Dec-01 10:33N 01°12' E 103°49'5 5.4
2016-Dec-01 09:33N 01°17' E 103°47'0 0.0
2016-Dec-01 08:34N 01°17' E 103°47'0 0.0
2016-Dec-01 07:34N 01°17' E 103°47'0 0.1
2016-Dec-01 06:34N 01°17' E 103°47'0 0.0
2016-Dec-01 05:33N 01°17' E 103°47'0 0.0
2016-Dec-01 04:31N 01°17' E 103°47'0 0.1
2016-Dec-01 03:34N 01°17' E 103°47'0 0.0
2016-Dec-01 02:34N 01°17' E 103°47'0 0.0
2016-Dec-01 01:34N 01°17' E 103°47'0 0.0
2016-Dec-01 00:34N 01°17' E 103°47'0 0.1
2016-Nov-30 23:33N 01°17' E 103°47'1 0.7
2016-Nov-30 22:33N 01°16' E 103°47'5 5.0
2016-Nov-30 21:33N 01°12' E 103°50'4 3.7
2016-Nov-30 20:28N 01°16' E 103°50'0 0.0
2016-Nov-30 19:31N 01°16' E 103°50'0 0.0
2016-Nov-30 18:31N 01°16' E 103°50'0 0.0
2016-Nov-30 17:31N 01°16' E 103°50'0 0.0
2016-Nov-30 16:31N 01°16' E 103°50'0 0.0
2016-Nov-30 15:31N 01°16' E 103°50'0 0.0
2016-Nov-30 14:31N 01°16' E 103°50'0 0.0
2016-Nov-30 13:31N 01°16' E 103°50'0 0.0
2016-Nov-30 12:31N 01°16' E 103°50'0 0.0
2016-Nov-30 11:28N 01°16' E 103°50'0 0.0
2016-Nov-30 10:19N 01°16' E 103°50'0 0.0
2016-Nov-30 09:31N 01°16' E 103°50'0 0.0
2016-Nov-30 08:25N 01°16' E 103°50'0 0.0
2016-Nov-30 07:19N 01°16' E 103°50'0 0.0
2016-Nov-30 06:31N 01°16' E 103°50'0 0.0
2016-Nov-30 05:25N 01°16' E 103°50'0 0.0
2016-Nov-30 04:19N 01°16' E 103°50'0 0.0
2016-Nov-30 03:31N 01°16' E 103°50'0 0.0
2016-Nov-30 02:25N 01°16' E 103°50'0 0.0
2016-Nov-30 01:10N 01°16' E 103°50'0 0.0
2016-Nov-30 00:31N 01°16' E 103°50'0 0.0
2016-Nov-29 23:31N 01°16' E 103°50'0 0.0
2016-Nov-29 22:28N 01°16' E 103°50'0 0.0
2016-Nov-29 21:25N 01°16' E 103°50'0 0.4
2016-Nov-29 20:33N 01°16' E 103°50'  
2016-Nov-24 13:25N 01°14' E 104°03'1416.5
2016-Nov-24 12:33N 01°12' E 103°49'6 5.6
2016-Nov-24 11:33N 01°16' E 103°47'0 0.1
2016-Nov-24 10:29N 01°17' E 103°47'0 0.0
2016-Nov-24 09:32N 01°17' E 103°47'0 0.0
2016-Nov-24 08:29N 01°17' E 103°47'0 0.0
2016-Nov-24 07:29N 01°17' E 103°47'0 0.0
2016-Nov-24 06:32N 01°17' E 103°47'0 0.0
2016-Nov-24 05:32N 01°17' E 103°47'0 0.0
2016-Nov-24 04:32N 01°17' E 103°47'0 0.0
2016-Nov-24 03:32N 01°17' E 103°47'0 0.0
2016-Nov-24 02:32N 01°17' E 103°47'0 0.0
2016-Nov-24 01:32N 01°17' E 103°47'0 0.0
2016-Nov-24 00:32N 01°17' E 103°47'0 0.1
2016-Nov-23 23:33N 01°16' E 103°47'4 4.1
2016-Nov-23 22:33N 01°13' E 103°48'4 4.0
2016-Nov-23 21:30N 01°16' E 103°51'0 0.0
2016-Nov-23 20:33N 01°16' E 103°51'0 0.0
2016-Nov-23 19:33N 01°16' E 103°51'0 0.0
2016-Nov-23 18:33N 01°16' E 103°51'0 0.0
2016-Nov-23 17:33N 01°16' E 103°51'0 0.0
2016-Nov-23 16:33N 01°16' E 103°51'0 0.0
2016-Nov-23 15:33N 01°16' E 103°51'0 0.0
2016-Nov-23 14:33N 01°16' E 103°51'0 0.0
2016-Nov-23 12:09N 01°16' E 103°51'0 0.0
2016-Nov-23 11:24N 01°16' E 103°51'0 0.0
2016-Nov-23 08:03N 01°16' E 103°51'0 0.0
2016-Nov-23 06:30N 01°16' E 103°51'0 0.0
2016-Nov-23 00:27N 01°16' E 103°51'0 0.0
2016-Nov-22 23:27N 01°16' E 103°51'0 0.1
2016-Nov-22 22:33N 01°16' E 103°51'16 7.9
2016-Nov-22 20:33N 01°16' E 104°07'  
Track history (hours):
 
Tides and Currents Weather Stations Pressure Air Temp Water Temp Dewpoint Dewpoint Depression Visibility Wind Speed Wind Dir Waves Ship Positions

Budapest Bridge

Last reported at 2016-Dec-01 11:31 UTC. Time now 2016-Dec-09 02:02 UTC.
Position N 01°15' E 104°04'.

Length 268 m; draft 11.5 m.

Type: Cargo ship. MMSI: 477434200.

Date/timePositionNaut miles runAvg speedWind from/ knotsBaromVisibWave heightAir tempDewpointWater temp
2016-Dec-01 11:31N 01°15' E 104°04'1515.6
2016-Dec-01 10:33N 01°12' E 103°49'5 5.4
2016-Dec-01 09:33N 01°17' E 103°47'0 0.0
2016-Dec-01 08:34N 01°17' E 103°47'0 0.0
2016-Dec-01 07:34N 01°17' E 103°47'0 0.1
2016-Dec-01 06:34N 01°17' E 103°47'0 0.0
2016-Dec-01 05:33N 01°17' E 103°47'0 0.0
2016-Dec-01 04:31N 01°17' E 103°47'0 0.1
2016-Dec-01 03:34N 01°17' E 103°47'0 0.0
2016-Dec-01 02:34N 01°17' E 103°47'0 0.0
2016-Dec-01 01:34N 01°17' E 103°47'0 0.0
2016-Dec-01 00:34N 01°17' E 103°47'0 0.1
2016-Nov-30 23:33N 01°17' E 103°47'1 0.7
2016-Nov-30 22:33N 01°16' E 103°47'5 5.0
2016-Nov-30 21:33N 01°12' E 103°50'4 3.7
2016-Nov-30 20:28N 01°16' E 103°50'0 0.0
2016-Nov-30 19:31N 01°16' E 103°50'0 0.0
2016-Nov-30 18:31N 01°16' E 103°50'0 0.0
2016-Nov-30 17:31N 01°16' E 103°50'0 0.0
2016-Nov-30 16:31N 01°16' E 103°50'0 0.0
2016-Nov-30 15:31N 01°16' E 103°50'0 0.0
2016-Nov-30 14:31N 01°16' E 103°50'0 0.0
2016-Nov-30 13:31N 01°16' E 103°50'0 0.0
2016-Nov-30 12:31N 01°16' E 103°50'0 0.0
2016-Nov-30 11:28N 01°16' E 103°50'0 0.0
2016-Nov-30 10:19N 01°16' E 103°50'0 0.0
2016-Nov-30 09:31N 01°16' E 103°50'0 0.0
2016-Nov-30 08:25N 01°16' E 103°50'0 0.0
2016-Nov-30 07:19N 01°16' E 103°50'0 0.0
2016-Nov-30 06:31N 01°16' E 103°50'0 0.0
2016-Nov-30 05:25N 01°16' E 103°50'0 0.0
2016-Nov-30 04:19N 01°16' E 103°50'0 0.0
2016-Nov-30 03:31N 01°16' E 103°50'0 0.0
2016-Nov-30 02:25N 01°16' E 103°50'0 0.0
2016-Nov-30 01:10N 01°16' E 103°50'0 0.0
2016-Nov-30 00:31N 01°16' E 103°50'0 0.0
2016-Nov-29 23:31N 01°16' E 103°50'0 0.0
2016-Nov-29 22:28N 01°16' E 103°50'0 0.0
2016-Nov-29 21:25N 01°16' E 103°50'0 0.4
2016-Nov-29 20:33N 01°16' E 103°50'  
2016-Nov-24 13:25N 01°14' E 104°03'1416.5
2016-Nov-24 12:33N 01°12' E 103°49'6 5.6
2016-Nov-24 11:33N 01°16' E 103°47'0 0.1
2016-Nov-24 10:29N 01°17' E 103°47'0 0.0
2016-Nov-24 09:32N 01°17' E 103°47'0 0.0
2016-Nov-24 08:29N 01°17' E 103°47'0 0.0
2016-Nov-24 07:29N 01°17' E 103°47'0 0.0
2016-Nov-24 06:32N 01°17' E 103°47'0 0.0
2016-Nov-24 05:32N 01°17' E 103°47'0 0.0
2016-Nov-24 04:32N 01°17' E 103°47'0 0.0
2016-Nov-24 03:32N 01°17' E 103°47'0 0.0
2016-Nov-24 02:32N 01°17' E 103°47'0 0.0
2016-Nov-24 01:32N 01°17' E 103°47'0 0.0
2016-Nov-24 00:32N 01°17' E 103°47'0 0.1
2016-Nov-23 23:33N 01°16' E 103°47'4 4.1
2016-Nov-23 22:33N 01°13' E 103°48'4 4.0
2016-Nov-23 21:30N 01°16' E 103°51'0 0.0
2016-Nov-23 20:33N 01°16' E 103°51'0 0.0
2016-Nov-23 19:33N 01°16' E 103°51'0 0.0
2016-Nov-23 18:33N 01°16' E 103°51'0 0.0
2016-Nov-23 17:33N 01°16' E 103°51'0 0.0
2016-Nov-23 16:33N 01°16' E 103°51'0 0.0
2016-Nov-23 15:33N 01°16' E 103°51'0 0.0
2016-Nov-23 14:33N 01°16' E 103°51'0 0.0
2016-Nov-23 12:09N 01°16' E 103°51'0 0.0
2016-Nov-23 11:24N 01°16' E 103°51'0 0.0
2016-Nov-23 08:03N 01°16' E 103°51'0 0.0
2016-Nov-23 06:30N 01°16' E 103°51'0 0.0
2016-Nov-23 00:27N 01°16' E 103°51'0 0.0
2016-Nov-22 23:27N 01°16' E 103°51'0 0.1
2016-Nov-22 22:33N 01°16' E 103°51'16 7.9
2016-Nov-22 20:33N 01°16' E 104°07'  

Dump ship's entire track history